createdAt,value
2016-10-30T00:00:11.937Z,0
2016-10-30T00:01:12.599Z,0
2016-10-30T00:02:13.259Z,0
2016-10-30T00:03:13.933Z,0
2016-10-30T00:04:14.588Z,0
2016-10-30T00:05:15.247Z,0
2016-10-30T00:06:15.911Z,0
2016-10-30T00:07:16.573Z,0
2016-10-30T00:08:17.241Z,0
2016-10-30T00:09:17.907Z,0
2016-10-30T00:10:18.573Z,0
2016-10-30T00:11:19.232Z,0
2016-10-30T00:12:19.900Z,0
2016-10-30T00:13:20.563Z,0
2016-10-30T00:14:21.229Z,0
2016-10-30T00:15:21.894Z,0
2016-10-30T00:16:22.562Z,0
2016-10-30T00:17:23.227Z,0
2016-10-30T00:18:23.903Z,0
2016-10-30T00:19:24.559Z,0
2016-10-30T00:20:25.215Z,0
2016-10-30T00:21:25.873Z,0
2016-10-30T00:22:26.541Z,0
2016-10-30T00:23:27.224Z,0
2016-10-30T00:24:27.890Z,0
2016-10-30T00:25:28.554Z,0
2016-10-30T00:26:29.213Z,0
2016-10-30T00:27:29.887Z,0
2016-10-30T00:28:30.543Z,0
2016-10-30T00:29:31.207Z,0
2016-10-30T00:30:31.879Z,0
2016-10-30T00:31:32.537Z,0
2016-10-30T00:32:33.215Z,0
2016-10-30T00:33:33.875Z,0
2016-10-30T00:34:34.551Z,0
2016-10-30T00:35:35.227Z,0
2016-10-30T00:36:35.898Z,0
2016-10-30T00:37:36.574Z,0
2016-10-30T00:38:37.242Z,0
2016-10-30T00:39:37.915Z,0
2016-10-30T00:40:38.585Z,0
2016-10-30T00:41:39.259Z,0
2016-10-30T00:42:39.930Z,0
2016-10-30T00:43:40.600Z,0
2016-10-30T00:44:41.277Z,0
2016-10-30T00:45:41.944Z,0
2016-10-30T00:46:42.617Z,0
2016-10-30T00:47:43.301Z,0
2016-10-30T00:48:43.963Z,0
2016-10-30T00:49:44.644Z,0
2016-10-30T00:50:45.309Z,0
2016-10-30T00:51:45.995Z,0
2016-10-30T00:52:46.672Z,0
2016-10-30T00:53:47.335Z,0
2016-10-30T00:54:47.995Z,0
2016-10-30T00:55:48.668Z,0
2016-10-30T00:56:49.343Z,0
2016-10-30T00:57:50.011Z,0
2016-10-30T00:58:50.690Z,0
2016-10-30T00:59:51.364Z,0
2016-10-30T01:00:52.035Z,0
2016-10-30T01:01:52.705Z,0
2016-10-30T01:02:53.366Z,0
2016-10-30T01:03:54.043Z,0
2016-10-30T01:04:54.737Z,0
2016-10-30T01:05:55.397Z,0
2016-10-30T01:06:56.067Z,0
2016-10-30T01:07:56.747Z,0
2016-10-30T01:08:57.406Z,0
2016-10-30T01:09:58.075Z,0
2016-10-30T01:10:58.735Z,0
2016-10-30T01:11:59.427Z,0
2016-10-30T01:13:00.089Z,0
2016-10-30T01:14:00.760Z,0
2016-10-30T01:15:01.417Z,0
2016-10-30T01:16:02.083Z,0
2016-10-30T01:17:02.738Z,0
2016-10-30T01:18:03.410Z,0
2016-10-30T01:19:04.082Z,0
2016-10-30T01:20:04.745Z,0
2016-10-30T01:21:05.411Z,0
2016-10-30T01:22:06.073Z,0
2016-10-30T01:23:06.763Z,0
2016-10-30T01:24:07.442Z,0
2016-10-30T01:25:08.141Z,0
2016-10-30T01:26:08.809Z,0
2016-10-30T01:27:09.471Z,0
2016-10-30T01:28:10.137Z,0
2016-10-30T01:29:10.802Z,0
2016-10-30T01:30:11.479Z,0
2016-10-30T01:31:12.131Z,0
2016-10-30T01:32:12.818Z,0
2016-10-30T01:33:13.489Z,0
2016-10-30T01:34:14.159Z,0
2016-10-30T01:35:14.822Z,0
2016-10-30T01:36:15.486Z,0
2016-10-30T01:37:16.149Z,0
2016-10-30T01:38:16.814Z,0
2016-10-30T01:39:17.468Z,0
2016-10-30T01:40:18.147Z,0
2016-10-30T01:41:18.851Z,0
2016-10-30T01:42:19.513Z,0
2016-10-30T01:43:20.185Z,0
2016-10-30T01:44:20.865Z,0
2016-10-30T01:45:21.527Z,0
2016-10-30T01:46:22.206Z,0
2016-10-30T01:47:22.871Z,0
2016-10-30T01:48:23.545Z,0
2016-10-30T01:49:24.200Z,0
2016-10-30T01:50:24.863Z,0
2016-10-30T01:51:25.536Z,0
2016-10-30T01:52:26.197Z,0
2016-10-30T01:53:26.858Z,0
2016-10-30T01:54:27.537Z,0
2016-10-30T01:55:28.212Z,0
2016-10-30T01:56:28.880Z,0
2016-10-30T01:57:29.550Z,0
2016-10-30T01:58:30.223Z,0
2016-10-30T01:59:30.883Z,0
2016-10-30T02:00:31.538Z,0
2016-10-30T02:01:32.193Z,0
2016-10-30T02:02:32.869Z,0
2016-10-30T02:03:33.538Z,0
2016-10-30T02:04:34.210Z,0
2016-10-30T02:05:34.869Z,0
2016-10-30T02:06:35.536Z,0
2016-10-30T02:07:36.202Z,0
2016-10-30T02:08:36.867Z,0
2016-10-30T02:09:37.527Z,0
2016-10-30T02:10:38.208Z,0
2016-10-30T02:11:38.876Z,0
2016-10-30T02:12:39.533Z,0
2016-10-30T02:13:40.195Z,0
2016-10-30T02:14:40.866Z,0
2016-10-30T02:15:41.537Z,0
2016-10-30T02:16:42.195Z,0
2016-10-30T02:17:42.924Z,0
2016-10-30T02:18:44.051Z,0
2016-10-30T02:19:44.719Z,0
2016-10-30T02:20:45.391Z,0
2016-10-30T02:21:46.063Z,0
2016-10-30T02:22:46.726Z,0
2016-10-30T02:23:47.426Z,0
2016-10-30T02:24:48.093Z,0
2016-10-30T02:25:48.763Z,0
2016-10-30T02:26:49.447Z,0
2016-10-30T02:27:50.112Z,0
2016-10-30T02:28:50.772Z,0
2016-10-30T02:29:51.434Z,0
2016-10-30T02:30:52.125Z,0
2016-10-30T02:31:52.792Z,0
2016-10-30T02:32:53.457Z,0
2016-10-30T02:33:54.146Z,0
2016-10-30T02:34:54.805Z,0
2016-10-30T02:35:55.470Z,0
2016-10-30T02:36:56.148Z,0
2016-10-30T02:37:56.810Z,0
2016-10-30T02:38:57.475Z,0
2016-10-30T02:39:58.167Z,0
2016-10-30T02:40:58.865Z,0
2016-10-30T02:41:59.529Z,0
2016-10-30T02:43:00.191Z,0
2016-10-30T02:44:00.856Z,0
2016-10-30T02:45:01.522Z,0
2016-10-30T02:46:02.197Z,0
2016-10-30T02:47:02.871Z,0
2016-10-30T02:48:03.535Z,0
2016-10-30T02:49:04.197Z,0
2016-10-30T02:50:04.858Z,0
2016-10-30T02:51:05.517Z,0
2016-10-30T02:52:06.185Z,0
2016-10-30T02:53:06.863Z,0
2016-10-30T02:54:07.557Z,0
2016-10-30T02:55:08.203Z,0
2016-10-30T02:56:08.879Z,0
2016-10-30T02:57:09.549Z,0
2016-10-30T02:58:10.220Z,0
2016-10-30T02:59:10.886Z,0
2016-10-30T03:00:11.560Z,0
2016-10-30T03:01:12.234Z,0
2016-10-30T03:02:12.889Z,0
2016-10-30T03:03:13.545Z,0
2016-10-30T03:04:14.207Z,0
2016-10-30T03:05:14.873Z,0
2016-10-30T03:06:15.542Z,0
2016-10-30T03:07:16.215Z,0
2016-10-30T03:08:16.884Z,0
2016-10-30T03:09:17.542Z,0
2016-10-30T03:10:18.210Z,0
2016-10-30T03:11:18.866Z,0
2016-10-30T03:12:19.544Z,0
2016-10-30T03:13:20.205Z,0
2016-10-30T03:14:20.868Z,0
2016-10-30T03:15:21.532Z,0
2016-10-30T03:16:22.208Z,0
2016-10-30T03:17:22.881Z,0
2016-10-30T03:18:23.532Z,0
2016-10-30T03:19:24.193Z,0
2016-10-30T03:20:24.860Z,0
2016-10-30T03:21:25.553Z,0
2016-10-30T03:22:26.225Z,0
2016-10-30T03:23:26.911Z,0
2016-10-30T03:24:27.587Z,0
2016-10-30T03:25:28.255Z,0
2016-10-30T03:26:28.925Z,0
2016-10-30T03:27:29.592Z,0
2016-10-30T03:28:30.266Z,0
2016-10-30T03:29:30.918Z,0
2016-10-30T03:30:31.584Z,0
2016-10-30T03:31:32.250Z,0
2016-10-30T03:32:32.916Z,0
2016-10-30T03:33:33.587Z,0
2016-10-30T03:34:34.265Z,0
2016-10-30T03:35:34.920Z,0
2016-10-30T03:36:35.590Z,0
2016-10-30T03:37:36.254Z,0
2016-10-30T03:38:36.920Z,0
2016-10-30T03:39:37.584Z,0
2016-10-30T03:40:38.259Z,0
2016-10-30T03:41:38.914Z,0
2016-10-30T03:42:39.581Z,0
2016-10-30T03:43:40.249Z,0
2016-10-30T03:44:40.910Z,0
2016-10-30T03:45:41.568Z,0
2016-10-30T03:46:42.246Z,0
2016-10-30T03:47:42.924Z,0
2016-10-30T03:48:43.595Z,0
2016-10-30T03:49:44.252Z,0
2016-10-30T03:50:44.913Z,0
2016-10-30T03:51:45.571Z,0
2016-10-30T03:52:46.234Z,0
2016-10-30T03:53:46.902Z,0
2016-10-30T03:54:47.585Z,0
2016-10-30T03:55:48.262Z,0
2016-10-30T03:56:48.925Z,0
2016-10-30T03:57:49.591Z,0
2016-10-30T03:58:50.250Z,0
2016-10-30T03:59:50.915Z,0
2016-10-30T04:00:51.573Z,0
2016-10-30T04:01:52.241Z,0
2016-10-30T04:02:52.916Z,0
2016-10-30T04:03:53.575Z,0
2016-10-30T04:04:54.258Z,0
2016-10-30T04:05:54.912Z,0
2016-10-30T04:06:55.574Z,0
2016-10-30T04:07:56.227Z,0
2016-10-30T04:08:56.911Z,0
2016-10-30T04:09:57.583Z,0
2016-10-30T04:10:58.244Z,0
2016-10-30T04:11:58.911Z,0
2016-10-30T04:12:59.576Z,0
2016-10-30T04:14:00.252Z,0
2016-10-30T04:15:00.920Z,0
2016-10-30T04:16:01.597Z,0
2016-10-30T04:17:02.283Z,0
2016-10-30T04:18:02.948Z,0
2016-10-30T04:19:03.623Z,0
2016-10-30T04:20:04.286Z,0
2016-10-30T04:21:04.983Z,0
2016-10-30T04:22:05.643Z,0
2016-10-30T04:23:06.313Z,0
2016-10-30T04:24:06.981Z,0
2016-10-30T04:25:07.647Z,0
2016-10-30T04:26:08.337Z,0
2016-10-30T04:27:08.986Z,0
2016-10-30T04:28:09.654Z,0
2016-10-30T04:29:10.315Z,0
2016-10-30T04:30:10.986Z,0
2016-10-30T04:31:11.650Z,0
2016-10-30T04:32:12.311Z,0
2016-10-30T04:33:12.978Z,0
2016-10-30T04:34:13.640Z,0
2016-10-30T04:35:14.301Z,0
2016-10-30T04:36:14.969Z,0
2016-10-30T04:37:15.634Z,0
2016-10-30T04:38:16.299Z,0
2016-10-30T04:39:16.956Z,0
2016-10-30T04:40:17.624Z,0
2016-10-30T04:41:18.293Z,0
2016-10-30T04:42:18.969Z,0
2016-10-30T04:43:19.665Z,0
2016-10-30T04:44:20.311Z,0
2016-10-30T04:45:20.984Z,0
2016-10-30T04:46:21.653Z,0
2016-10-30T04:47:22.311Z,0
2016-10-30T04:48:22.994Z,0
2016-10-30T04:49:23.678Z,0
2016-10-30T04:50:24.337Z,0
2016-10-30T04:51:24.993Z,0
2016-10-30T04:52:25.670Z,0
2016-10-30T04:53:26.332Z,0
2016-10-30T04:54:27.016Z,0
2016-10-30T04:55:27.677Z,0
2016-10-30T04:56:28.354Z,0
2016-10-30T04:57:29.021Z,0
2016-10-30T04:58:29.681Z,0
2016-10-30T04:59:30.350Z,0
2016-10-30T05:00:31.012Z,0
2016-10-30T05:01:31.674Z,0
2016-10-30T05:02:32.333Z,0
2016-10-30T05:03:32.998Z,0
2016-10-30T05:04:33.665Z,0
2016-10-30T05:05:34.322Z,0
2016-10-30T05:06:34.981Z,0
2016-10-30T05:07:35.653Z,0
2016-10-30T05:08:36.326Z,0
2016-10-30T05:09:37.010Z,0
2016-10-30T05:10:37.674Z,0
2016-10-30T05:11:38.342Z,0
2016-10-30T05:12:39.016Z,0
2016-10-30T05:13:39.688Z,0
2016-10-30T05:14:40.358Z,0
2016-10-30T05:15:41.025Z,0
2016-10-30T05:16:41.707Z,0
2016-10-30T05:17:42.373Z,0
2016-10-30T05:18:43.044Z,0
2016-10-30T05:19:43.716Z,0
2016-10-30T05:20:44.389Z,0
2016-10-30T05:21:45.061Z,0
2016-10-30T05:22:45.731Z,0
2016-10-30T05:23:46.463Z,0
2016-10-30T05:24:47.130Z,0
2016-10-30T05:25:47.787Z,0
2016-10-30T05:26:48.477Z,0
2016-10-30T05:27:49.153Z,0
2016-10-30T05:28:49.809Z,0
2016-10-30T05:29:50.490Z,0
2016-10-30T05:30:51.165Z,0
2016-10-30T05:31:51.835Z,0
2016-10-30T05:32:52.499Z,0
2016-10-30T05:33:53.179Z,0
2016-10-30T05:34:53.848Z,0
2016-10-30T05:35:54.529Z,0
2016-10-30T05:36:55.189Z,0
2016-10-30T05:37:55.864Z,0
2016-10-30T05:38:56.532Z,0
2016-10-30T05:39:57.196Z,0
2016-10-30T05:40:57.853Z,4
2016-10-30T05:41:58.512Z,4
2016-10-30T05:42:59.178Z,0
2016-10-30T05:43:59.848Z,0
2016-10-30T05:45:00.520Z,4
2016-10-30T05:46:01.186Z,4
2016-10-30T05:47:01.848Z,0
2016-10-30T05:48:02.506Z,4
2016-10-30T05:49:03.176Z,4
2016-10-30T05:50:03.836Z,8
2016-10-30T05:51:04.494Z,8
2016-10-30T05:52:05.181Z,8
2016-10-30T05:53:05.825Z,8
2016-10-30T05:54:06.491Z,12
2016-10-30T05:55:07.156Z,16
2016-10-30T05:56:07.834Z,16
2016-10-30T05:57:08.505Z,20
2016-10-30T05:58:09.182Z,20
2016-10-30T05:59:09.838Z,24
2016-10-30T06:00:10.499Z,28
2016-10-30T06:01:11.162Z,32
2016-10-30T06:02:11.827Z,36
2016-10-30T06:03:12.497Z,44
2016-10-30T06:04:13.159Z,52
2016-10-30T06:05:13.821Z,60
2016-10-30T06:06:14.501Z,68
2016-10-30T06:07:15.182Z,76
2016-10-30T06:08:15.857Z,92
2016-10-30T06:09:16.528Z,104
2016-10-30T06:10:17.220Z,120
2016-10-30T06:11:17.888Z,144
2016-10-30T06:12:18.559Z,164
2016-10-30T06:13:19.225Z,184
2016-10-30T06:14:19.891Z,208
2016-10-30T06:15:20.566Z,228
2016-10-30T06:16:21.242Z,252
2016-10-30T06:17:21.904Z,276
2016-10-30T06:18:22.582Z,304
2016-10-30T06:19:23.258Z,332
2016-10-30T06:20:23.929Z,376
2016-10-30T06:21:24.605Z,408
2016-10-30T06:22:25.273Z,444
2016-10-30T06:23:25.941Z,476
2016-10-30T06:24:26.622Z,512
2016-10-30T06:25:27.286Z,548
2016-10-30T06:26:27.967Z,576
2016-10-30T06:27:28.641Z,620
2016-10-30T06:28:29.306Z,676
2016-10-30T06:29:29.981Z,724
2016-10-30T06:30:30.651Z,764
2016-10-30T06:31:31.318Z,796
2016-10-30T06:32:31.995Z,820
2016-10-30T06:33:32.663Z,832
2016-10-30T06:34:33.343Z,856
2016-10-30T06:35:34.017Z,928
2016-10-30T06:36:34.694Z,1032
2016-10-30T06:37:35.364Z,1124
2016-10-30T06:38:36.041Z,1216
2016-10-30T06:39:36.717Z,1296
2016-10-30T06:40:37.388Z,1344
2016-10-30T06:41:38.053Z,1396
2016-10-30T06:42:38.726Z,1464
2016-10-30T06:43:39.395Z,1524
2016-10-30T06:44:40.071Z,1596
2016-10-30T06:45:40.725Z,1640
2016-10-30T06:46:41.385Z,1696
2016-10-30T06:47:42.069Z,1788
2016-10-30T06:48:42.742Z,1896
2016-10-30T06:49:43.404Z,1984
2016-10-30T06:50:44.071Z,2076
2016-10-30T06:51:44.729Z,2152
2016-10-30T06:52:45.399Z,2216
2016-10-30T06:53:46.062Z,2300
2016-10-30T06:54:46.731Z,2396
2016-10-30T06:55:47.406Z,2536
2016-10-30T06:56:48.074Z,2684
2016-10-30T06:57:48.734Z,2804
2016-10-30T06:58:49.399Z,2900
2016-10-30T06:59:50.098Z,3044
2016-10-30T07:00:50.760Z,3316
2016-10-30T07:01:51.427Z,3640
2016-10-30T07:02:52.093Z,3820
2016-10-30T07:03:52.759Z,3804
2016-10-30T07:04:53.442Z,3684
2016-10-30T07:05:54.114Z,3572
2016-10-30T07:06:54.789Z,3452
2016-10-30T07:07:55.470Z,3500
2016-10-30T07:08:56.143Z,3720
2016-10-30T07:09:56.806Z,3980
2016-10-30T07:10:57.473Z,4128
2016-10-30T07:11:58.152Z,4196
2016-10-30T07:12:58.826Z,4328
2016-10-30T07:13:59.495Z,4240
2016-10-30T07:15:00.164Z,4216
2016-10-30T07:16:00.831Z,4248
2016-10-30T07:17:01.506Z,4316
2016-10-30T07:18:02.167Z,4484
2016-10-30T07:19:02.837Z,4760
2016-10-30T07:20:03.511Z,4780
2016-10-30T07:21:04.183Z,4712
2016-10-30T07:22:04.854Z,4608
2016-10-30T07:23:05.525Z,4636
2016-10-30T07:24:06.205Z,4684
2016-10-30T07:25:06.879Z,4768
2016-10-30T07:26:07.549Z,4884
2016-10-30T07:27:08.230Z,5056
2016-10-30T07:28:08.891Z,5052
2016-10-30T07:29:09.572Z,4788
2016-10-30T07:30:10.237Z,4664
2016-10-30T07:31:10.914Z,4824
2016-10-30T07:32:11.596Z,4768
2016-10-30T07:33:12.270Z,4504
2016-10-30T07:34:12.956Z,4324
2016-10-30T07:35:13.648Z,4356
2016-10-30T07:36:14.318Z,4432
2016-10-30T07:37:14.993Z,4536
2016-10-30T07:38:15.668Z,4392
2016-10-30T07:39:16.338Z,4312
2016-10-30T07:40:17.013Z,4236
2016-10-30T07:41:17.752Z,4104
2016-10-30T07:42:18.420Z,3928
2016-10-30T07:43:19.097Z,3756
2016-10-30T07:44:19.774Z,3644
2016-10-30T07:45:20.457Z,3596
2016-10-30T07:46:21.132Z,3600
2016-10-30T07:47:21.835Z,3692
2016-10-30T07:48:22.682Z,3944
2016-10-30T07:49:23.360Z,4144
2016-10-30T07:50:24.047Z,3996
2016-10-30T07:51:24.737Z,3792
2016-10-30T07:52:25.409Z,4048
2016-10-30T07:53:26.102Z,4056
2016-10-30T07:54:26.794Z,4492
2016-10-30T07:55:27.626Z,4324
2016-10-30T07:56:28.270Z,3812
2016-10-30T07:57:28.947Z,3900
2016-10-30T07:58:29.658Z,3924
2016-10-30T07:59:30.334Z,4172
2016-10-30T08:00:31.002Z,5088
2016-10-30T08:01:31.695Z,5312
2016-10-30T08:02:32.370Z,4788
2016-10-30T08:03:33.031Z,4384
2016-10-30T08:04:34.567Z,4448
2016-10-30T08:05:35.234Z,4824
2016-10-30T08:06:35.919Z,4744
2016-10-30T08:07:36.609Z,4708
2016-10-30T08:08:37.282Z,4292
2016-10-30T08:09:37.950Z,3524
2016-10-30T08:10:38.617Z,3636
2016-10-30T08:11:39.280Z,4012
2016-10-30T08:12:39.939Z,4532
2016-10-30T08:13:40.614Z,5476
2016-10-30T08:14:41.275Z,5968
2016-10-30T08:15:41.947Z,7000
2016-10-30T08:16:42.618Z,7448
2016-10-30T08:17:43.280Z,5784
2016-10-30T08:18:43.949Z,6248
2016-10-30T08:19:44.615Z,5664
2016-10-30T08:26:00.446Z,11100
2016-10-30T08:27:01.128Z,14552
2016-10-30T08:28:01.793Z,11916
2016-10-30T08:29:02.466Z,10412
2016-10-30T08:30:03.139Z,7300
2016-10-30T08:31:03.814Z,8788
2016-10-30T08:32:04.487Z,17216
2016-10-30T08:33:05.152Z,8548
2016-10-30T08:34:05.828Z,8216
2016-10-30T08:35:06.498Z,8460
2016-10-30T08:36:07.165Z,8552
2016-10-30T08:37:07.834Z,7088
2016-10-30T08:38:08.496Z,13996
2016-10-30T08:39:09.190Z,14424
2016-10-30T08:40:09.863Z,4936
2016-10-30T08:41:10.532Z,15216
2016-10-30T08:42:11.203Z,12700
2016-10-30T08:43:11.876Z,7396
2016-10-30T08:44:12.546Z,5340
2016-10-30T08:45:13.222Z,4884
2016-10-30T08:46:13.896Z,5092
2016-10-30T08:47:14.564Z,5012
2016-10-30T08:48:15.239Z,4872
2016-10-30T08:49:15.912Z,5760
2016-10-30T08:50:16.591Z,6700
2016-10-30T08:51:17.260Z,8500
2016-10-30T08:52:17.940Z,8556
2016-10-30T08:53:18.615Z,7988
2016-10-30T08:54:19.286Z,7000
2016-10-30T08:55:19.949Z,7528
2016-10-30T08:56:20.641Z,8468
2016-10-30T08:57:21.308Z,10620
2016-10-30T08:58:21.977Z,8832
2016-10-30T08:59:22.646Z,6408
2016-10-30T09:00:23.321Z,4624
2016-10-30T09:01:23.990Z,4112
2016-10-30T09:02:24.664Z,4396
2016-10-30T09:03:25.330Z,5152
2016-10-30T09:04:26.001Z,5316
2016-10-30T09:05:26.674Z,5568
2016-10-30T09:06:27.348Z,5464
2016-10-30T09:07:28.031Z,6588
2016-10-30T09:08:28.692Z,8752
2016-10-30T09:09:29.366Z,7992
2016-10-30T09:10:30.041Z,5696
2016-10-30T09:11:30.716Z,4696
2016-10-30T09:12:31.394Z,5716
2016-10-30T09:13:32.062Z,5408
2016-10-30T09:14:32.726Z,5284
2016-10-30T09:15:33.402Z,4720
2016-10-30T09:16:34.079Z,4996
2016-10-30T09:17:36.056Z,5416
2016-10-30T09:18:36.760Z,6748
2016-10-30T09:19:39.163Z,6676
2016-10-30T09:20:39.860Z,6896
2016-10-30T09:21:40.523Z,6160
2016-10-30T09:22:41.235Z,6392
2016-10-30T09:23:41.921Z,8084
2016-10-30T09:24:43.107Z,7308
2016-10-30T09:25:43.782Z,7812
2016-10-30T09:26:44.492Z,6508
2016-10-30T09:27:45.166Z,4964
2016-10-30T09:28:45.838Z,4744
2016-10-30T09:29:46.530Z,6140
2016-10-30T09:30:47.208Z,7068
2016-10-30T09:31:47.872Z,7468
2016-10-30T09:32:48.574Z,7172
2016-10-30T09:33:49.248Z,6824
2016-10-30T09:34:49.928Z,6600
2016-10-30T09:35:50.600Z,8464
2016-10-30T09:36:51.288Z,8640
2016-10-30T09:37:51.940Z,7344
2016-10-30T09:38:52.611Z,6088
2016-10-30T09:39:53.293Z,6508
2016-10-30T09:40:53.957Z,6156
2016-10-30T09:41:54.638Z,7216
2016-10-30T09:42:55.305Z,6868
2016-10-30T09:43:55.971Z,5708
2016-10-30T09:44:56.640Z,5428
2016-10-30T09:45:57.324Z,5228
2016-10-30T09:46:58.004Z,5320
2016-10-30T09:47:58.681Z,6328
2016-10-30T09:48:59.354Z,7004
2016-10-30T09:50:00.033Z,6964
2016-10-30T09:51:00.721Z,7344
2016-10-30T09:52:01.415Z,7184
2016-10-30T09:53:02.122Z,7464
2016-10-30T09:54:02.807Z,7368
2016-10-30T09:55:03.485Z,7688
2016-10-30T09:56:04.185Z,8428
2016-10-30T09:57:04.865Z,9024
2016-10-30T09:58:05.543Z,8624
2016-10-30T09:59:06.223Z,7772
2016-10-30T10:00:06.900Z,7736
2016-10-30T10:01:07.570Z,8440
2016-10-30T10:02:08.241Z,8864
2016-10-30T10:03:08.914Z,9192
2016-10-30T10:04:09.590Z,10364
2016-10-30T10:05:10.857Z,11012
2016-10-30T10:06:11.557Z,10900
2016-10-30T10:07:12.240Z,10616
2016-10-30T10:08:12.910Z,11236
2016-10-30T10:09:13.596Z,11540
2016-10-30T10:10:14.266Z,11188
2016-10-30T10:11:14.942Z,10636
2016-10-30T10:12:15.628Z,9724
2016-10-30T10:13:16.305Z,9524
2016-10-30T10:14:17.002Z,9448
2016-10-30T10:15:17.684Z,9612
2016-10-30T10:16:18.349Z,9796
2016-10-30T10:17:19.019Z,10060
2016-10-30T10:18:19.697Z,10284
2016-10-30T10:19:20.364Z,9688
2016-10-30T10:20:21.037Z,9528
2016-10-30T10:21:21.712Z,9424
2016-10-30T10:22:22.583Z,9140
2016-10-30T10:23:23.100Z,9028
2016-10-30T10:24:23.770Z,9220
2016-10-30T10:25:24.449Z,9248
2016-10-30T10:26:25.133Z,9016
2016-10-30T10:27:25.814Z,8896
2016-10-30T10:28:26.492Z,8336
2016-10-30T10:29:27.223Z,8084
2016-10-30T10:30:27.915Z,8360
2016-10-30T10:31:28.591Z,8712
2016-10-30T10:32:31.053Z,8884
2016-10-30T10:33:31.312Z,8860
2016-10-30T10:34:31.980Z,9008
2016-10-30T10:35:32.651Z,9216
2016-10-30T10:36:33.316Z,9108
2016-10-30T10:37:33.986Z,8700
2016-10-30T10:38:34.661Z,8440
2016-10-30T10:39:35.349Z,7876
2016-10-30T10:40:36.013Z,7396
2016-10-30T10:41:36.679Z,7224
2016-10-30T10:42:37.357Z,7408
2016-10-30T10:43:38.023Z,7640
2016-10-30T10:44:38.694Z,7884
2016-10-30T10:45:39.368Z,7960
2016-10-30T10:46:40.036Z,7884
2016-10-30T10:47:40.707Z,7776
2016-10-30T10:48:41.500Z,7760
2016-10-30T10:49:42.165Z,7796
2016-10-30T10:50:42.856Z,7844
2016-10-30T10:51:43.546Z,7720
2016-10-30T10:52:44.269Z,7496
2016-10-30T10:53:46.171Z,7216
2016-10-30T10:54:46.802Z,6972
2016-10-30T10:55:47.470Z,6796
2016-10-30T10:56:48.140Z,6616
2016-10-30T10:57:48.909Z,6552
2016-10-30T10:58:49.611Z,6964
2016-10-30T10:59:50.289Z,7332
2016-10-30T11:00:50.954Z,6572
2016-10-30T11:01:51.626Z,6144
2016-10-30T11:02:52.332Z,5816
2016-10-30T11:03:52.996Z,5680
2016-10-30T11:04:53.661Z,5884
2016-10-30T11:05:54.612Z,5932
2016-10-30T11:06:55.283Z,5736
2016-10-30T11:07:56.253Z,5512
2016-10-30T11:08:58.167Z,5436
2016-10-30T11:09:58.883Z,5952
2016-10-30T11:10:59.948Z,5904
2016-10-30T11:12:00.696Z,5448
2016-10-30T11:13:01.373Z,5420
2016-10-30T11:14:02.044Z,5556
2016-10-30T11:15:02.766Z,5028
2016-10-30T11:16:03.437Z,4480
2016-10-30T11:17:04.114Z,3968
2016-10-30T11:18:04.789Z,4032
2016-10-30T11:19:05.455Z,4204
2016-10-30T11:20:06.130Z,4556
2016-10-30T11:21:06.800Z,4708
2016-10-30T11:22:07.473Z,4768
2016-10-30T11:23:08.142Z,4708
2016-10-30T11:24:08.816Z,4240
2016-10-30T11:25:09.491Z,4072
2016-10-30T11:26:10.164Z,4136
2016-10-30T11:27:10.834Z,4648
2016-10-30T11:28:11.512Z,5032
2016-10-30T11:29:12.230Z,4700
2016-10-30T11:30:12.907Z,4312
2016-10-30T11:31:13.572Z,4192
2016-10-30T11:32:14.250Z,4420
2016-10-30T11:33:14.919Z,4696
2016-10-30T11:34:15.592Z,5160
2016-10-30T11:35:16.304Z,5720
2016-10-30T11:36:16.983Z,5880
2016-10-30T11:37:17.666Z,5920
2016-10-30T11:38:18.377Z,6540
2016-10-30T11:39:19.067Z,8064
2016-10-30T11:40:19.743Z,8264
2016-10-30T11:41:20.408Z,7236
2016-10-30T11:42:21.084Z,6824
2016-10-30T11:43:21.749Z,6224
2016-10-30T11:44:22.427Z,5904
2016-10-30T11:45:23.170Z,5516
2016-10-30T11:46:23.861Z,5848
2016-10-30T11:47:24.613Z,6240
2016-10-30T11:48:25.216Z,6672
2016-10-30T11:49:25.891Z,7016
2016-10-30T11:50:26.564Z,6800
2016-10-30T11:51:27.234Z,6280
2016-10-30T11:52:27.908Z,6284
2016-10-30T11:53:28.579Z,6692
2016-10-30T11:54:29.257Z,7160
2016-10-30T11:55:29.923Z,7032
2016-10-30T11:56:30.600Z,6708
2016-10-30T11:57:31.274Z,5996
2016-10-30T11:58:31.944Z,5108
2016-10-30T11:59:32.605Z,4544
2016-10-30T12:00:33.287Z,4620
2016-10-30T12:01:33.952Z,4804
2016-10-30T12:02:34.624Z,4496
2016-10-30T12:03:35.299Z,4188
2016-10-30T12:04:36.072Z,4096
2016-10-30T12:05:37.755Z,4428
2016-10-30T12:06:38.962Z,5268
2016-10-30T12:07:39.834Z,5396
2016-10-30T12:08:40.529Z,5140
2016-10-30T12:09:41.195Z,5172
2016-10-30T12:10:41.896Z,5172
2016-10-30T12:11:42.574Z,5396
2016-10-30T12:12:43.243Z,5104
2016-10-30T12:13:43.917Z,4704
2016-10-30T12:14:44.591Z,4592
2016-10-30T12:15:45.260Z,4584
2016-10-30T12:16:45.943Z,4504
2016-10-30T12:17:46.618Z,4368
2016-10-30T12:18:47.344Z,4612
2016-10-30T12:19:48.147Z,4100
2016-10-30T12:20:48.824Z,3576
2016-10-30T12:21:49.488Z,3212
2016-10-30T12:22:50.164Z,3308
2016-10-30T12:23:50.872Z,3144
2016-10-30T12:24:51.803Z,3108
2016-10-30T12:25:52.454Z,3344
2016-10-30T12:26:53.119Z,3436
2016-10-30T12:27:53.797Z,3528
2016-10-30T12:28:54.473Z,3940
2016-10-30T12:29:55.152Z,4912
2016-10-30T12:30:55.829Z,6252
2016-10-30T12:31:56.492Z,6676
2016-10-30T12:32:57.160Z,6544
2016-10-30T12:33:57.839Z,5948
2016-10-30T12:34:58.506Z,4860
2016-10-30T12:35:59.194Z,4200
2016-10-30T12:36:59.879Z,4000
2016-10-30T12:38:00.553Z,4376
2016-10-30T12:39:01.227Z,4440
2016-10-30T12:40:01.899Z,4280
2016-10-30T12:41:02.574Z,4012
2016-10-30T12:42:03.249Z,4076
2016-10-30T12:43:03.927Z,4280
2016-10-30T12:44:04.587Z,4340
2016-10-30T12:45:05.256Z,4340
2016-10-30T12:46:05.925Z,4184
2016-10-30T12:47:06.601Z,4048
2016-10-30T12:48:07.273Z,3980
2016-10-30T12:49:07.947Z,4012
2016-10-30T12:50:08.616Z,4140
2016-10-30T12:51:09.284Z,4048
2016-10-30T12:52:09.950Z,4156
2016-10-30T12:53:10.624Z,3924
2016-10-30T12:54:11.306Z,3984
2016-10-30T12:55:11.982Z,3928
2016-10-30T12:56:12.654Z,3988
2016-10-30T12:57:13.330Z,4172
2016-10-30T12:58:13.995Z,4540
2016-10-30T12:59:14.674Z,4892
2016-10-30T13:00:15.344Z,4672
2016-10-30T13:01:16.015Z,4288
2016-10-30T13:02:16.687Z,4192
2016-10-30T13:03:17.363Z,4136
2016-10-30T13:04:18.036Z,4032
2016-10-30T13:05:18.705Z,4032
2016-10-30T13:06:19.378Z,4320
2016-10-30T13:07:20.051Z,4468
2016-10-30T13:08:20.723Z,4152
2016-10-30T13:09:21.392Z,3828
2016-10-30T13:10:22.066Z,3536
2016-10-30T13:11:22.743Z,3460
2016-10-30T13:12:23.417Z,3656
2016-10-30T13:13:24.094Z,4124
2016-10-30T13:14:24.760Z,4892
2016-10-30T13:15:25.426Z,5176
2016-10-30T13:16:26.101Z,4904
2016-10-30T13:17:26.759Z,4244
2016-10-30T13:18:27.446Z,3824
2016-10-30T13:19:28.117Z,3684
2016-10-30T13:20:28.789Z,3804
2016-10-30T13:21:29.470Z,4092
2016-10-30T13:22:30.188Z,4520
2016-10-30T13:23:30.909Z,4712
2016-10-30T13:24:31.580Z,4716
2016-10-30T13:25:32.255Z,4340
2016-10-30T13:26:32.927Z,3792
2016-10-30T13:27:33.599Z,3396
2016-10-30T13:28:34.273Z,3200
2016-10-30T13:29:34.943Z,3136
2016-10-30T13:30:35.619Z,3160
2016-10-30T13:31:36.293Z,3184
2016-10-30T13:32:36.965Z,3224
2016-10-30T13:33:37.641Z,3312
2016-10-30T13:34:38.306Z,3500
2016-10-30T13:35:38.988Z,3708
2016-10-30T13:36:39.668Z,3916
2016-10-30T13:37:40.343Z,4544
2016-10-30T13:38:41.010Z,5108
2016-10-30T13:39:41.677Z,5212
2016-10-30T13:40:42.342Z,4680
2016-10-30T13:41:43.024Z,4244
2016-10-30T13:42:43.714Z,4100
2016-10-30T13:43:44.388Z,3900
2016-10-30T13:44:45.083Z,3844
2016-10-30T13:45:45.757Z,3632
2016-10-30T13:46:46.441Z,3256
2016-10-30T13:47:47.117Z,3140
2016-10-30T13:48:47.813Z,3076
2016-10-30T13:49:48.502Z,2996
2016-10-30T13:50:49.172Z,2908
2016-10-30T13:51:49.846Z,2840
2016-10-30T13:52:50.516Z,2828
2016-10-30T13:53:51.195Z,2848
2016-10-30T13:54:51.868Z,2820
2016-10-30T13:55:52.545Z,2856
2016-10-30T13:56:53.219Z,2912
2016-10-30T13:57:53.890Z,2960
2016-10-30T13:58:54.567Z,3020
2016-10-30T13:59:55.228Z,3216
2016-10-30T14:00:55.899Z,3424
2016-10-30T14:01:56.573Z,3472
2016-10-30T14:02:57.244Z,3292
2016-10-30T14:03:57.921Z,3064
2016-10-30T14:04:58.593Z,2808
2016-10-30T14:05:59.261Z,2712
2016-10-30T14:06:59.932Z,2708
2016-10-30T14:08:00.604Z,2676
2016-10-30T14:09:01.281Z,2572